createdAt,value
2023-04-22T00:00:43.420Z,6.38
2023-04-22T00:03:12.021Z,6.53
2023-04-22T00:05:40.318Z,6.97
2023-04-22T00:08:09.008Z,7.03
2023-04-22T00:10:36.917Z,6.68
2023-04-22T00:13:04.852Z,7.65
2023-04-22T00:15:33.358Z,7.30
2023-04-22T00:18:01.889Z,6.75
2023-04-22T00:20:32.634Z,7.60
2023-04-22T00:23:00.528Z,7.90
2023-04-22T00:25:28.785Z,7.53
2023-04-22T00:27:56.860Z,7.55
2023-04-22T00:30:25.126Z,7.47
2023-04-22T00:32:53.455Z,7.18
2023-04-22T00:35:23.943Z,7.13
2023-04-22T00:37:52.192Z,6.70
2023-04-22T00:40:22.525Z,6.80
2023-04-22T00:42:51.593Z,7.40
2023-04-22T00:45:21.159Z,7.70
2023-04-22T00:47:49.598Z,7.85
2023-04-22T00:50:17.775Z,8.38
2023-04-22T00:52:45.813Z,7.43
2023-04-22T00:55:13.757Z,7.80
2023-04-22T00:57:41.708Z,7.32
2023-04-22T01:00:12.079Z,7.32
2023-04-22T01:02:40.597Z,7.32
2023-04-22T01:05:10.043Z,7.88
2023-04-22T01:07:38.315Z,7.10
2023-04-22T01:10:07.464Z,7.15
2023-04-22T01:12:35.787Z,7.38
2023-04-22T01:15:05.039Z,7.20
2023-04-22T01:17:34.918Z,7.28
2023-04-22T01:20:06.440Z,7.35
2023-04-22T01:22:41.559Z,7.15
2023-04-22T01:25:13.108Z,7.82
2023-04-22T01:30:10.411Z,7.25
2023-04-22T01:32:41.467Z,7.72
2023-04-22T01:35:11.645Z,7.80
2023-04-22T01:37:40.088Z,8.32
2023-04-22T01:40:10.275Z,7.43
2023-04-22T01:42:38.750Z,6.63
2023-04-22T01:45:07.989Z,6.72
2023-04-22T01:47:36.406Z,6.47
2023-04-22T01:50:05.112Z,7.35
2023-04-22T01:52:33.283Z,7.00
2023-04-22T01:55:02.134Z,6.78
2023-04-22T01:57:31.100Z,7.15
2023-04-22T01:59:59.558Z,7.60
2023-04-22T02:02:28.376Z,7.47
2023-04-22T02:04:57.745Z,7.30
2023-04-22T02:07:26.376Z,8.60
2023-04-22T02:09:54.552Z,7.03
2023-04-22T02:12:23.409Z,7.53
2023-04-22T02:14:51.567Z,7.65
2023-04-22T02:17:19.902Z,7.57
2023-04-22T02:19:48.033Z,7.00
2023-04-22T02:22:16.405Z,7.90
2023-04-22T02:24:44.782Z,7.25
2023-04-22T02:27:12.930Z,7.55
2023-04-22T02:29:42.344Z,8.27
2023-04-22T02:32:10.949Z,7.90
2023-04-22T02:34:39.131Z,6.82
2023-04-22T02:37:07.642Z,7.47
2023-04-22T02:39:36.052Z,7.53
2023-04-22T02:42:04.461Z,7.03
2023-04-22T02:44:32.561Z,7.80
2023-04-22T02:47:00.744Z,7.50
2023-04-22T02:49:28.780Z,7.45
2023-04-22T02:51:58.541Z,7.50
2023-04-22T02:54:26.910Z,7.10
2023-04-22T02:56:55.009Z,7.68
2023-04-22T02:59:23.364Z,7.82
2023-04-22T03:01:51.376Z,7.55
2023-04-22T03:04:38.395Z,7.78
2023-04-22T03:07:06.773Z,7.30
2023-04-22T03:09:35.827Z,8.10
2023-04-22T03:12:04.459Z,7.63
2023-04-22T03:14:32.745Z,7.22
2023-04-22T03:17:01.426Z,6.85
2023-04-22T03:19:32.644Z,7.45
2023-04-22T03:22:04.002Z,7.93
2023-04-22T03:24:32.393Z,7.72
2023-04-22T03:27:04.920Z,7.95
2023-04-22T03:29:32.919Z,7.45
2023-04-22T03:32:04.017Z,8.25
2023-04-22T03:34:37.039Z,7.43
2023-04-22T03:37:08.442Z,7.32
2023-04-22T03:39:37.171Z,8.18
2023-04-22T03:42:06.749Z,7.93
2023-04-22T03:44:41.334Z,7.72
2023-04-22T03:47:09.870Z,7.72
2023-04-22T03:49:45.675Z,6.80
2023-04-22T03:52:13.660Z,7.60
2023-04-22T03:54:48.557Z,8.05
2023-04-22T03:57:17.769Z,7.97
2023-04-22T03:59:46.013Z,7.93
2023-04-22T04:05:36.258Z,8.63
2023-04-22T04:08:04.822Z,7.40
2023-04-22T04:10:33.397Z,7.63
2023-04-22T04:13:03.827Z,8.02
2023-04-22T04:15:39.645Z,8.07
2023-04-22T04:18:10.009Z,7.00
2023-04-22T04:20:38.100Z,7.47
2023-04-22T04:23:06.295Z,7.20
2023-04-22T04:25:39.763Z,7.32
2023-04-22T04:28:12.479Z,7.78
2023-04-22T04:30:41.917Z,8.45
2023-04-22T04:33:12.641Z,8.35
2023-04-22T04:35:45.099Z,8.75
2023-04-22T04:38:17.859Z,7.65
2023-04-22T04:40:46.134Z,7.65
2023-04-22T04:43:26.350Z,7.47
2023-04-22T04:46:14.238Z,7.40
2023-04-22T04:48:44.234Z,7.10
2023-04-22T04:51:12.706Z,7.80
2023-04-22T04:53:47.286Z,7.57
2023-04-22T04:56:15.413Z,7.50
2023-04-22T04:58:44.330Z,8.40
2023-04-22T05:01:20.307Z,8.13
2023-04-22T05:03:49.577Z,7.40
2023-04-22T05:06:19.631Z,7.82
2023-04-22T05:08:52.860Z,7.53
2023-04-22T05:11:21.841Z,7.70
2023-04-22T05:13:54.410Z,7.20
2023-04-22T05:16:28.777Z,9.20
2023-04-22T05:18:57.871Z,7.15
2023-04-22T05:21:26.007Z,8.05
2023-04-22T05:23:54.843Z,7.93
2023-04-22T05:26:23.196Z,7.13
2023-04-22T05:28:52.044Z,7.05
2023-04-22T05:31:20.910Z,6.97
2023-04-22T05:33:49.465Z,7.63
2023-04-22T05:36:17.931Z,7.90
2023-04-22T05:38:48.426Z,8.05
2023-04-22T05:41:17.167Z,7.90
2023-04-22T05:43:45.630Z,6.50
2023-04-22T05:46:17.808Z,6.63
2023-04-22T05:48:49.062Z,8.02
2023-04-22T05:51:35.860Z,6.78
2023-04-22T05:54:04.237Z,7.22
2023-04-22T05:56:32.517Z,7.50
2023-04-22T05:59:00.858Z,6.93
2023-04-22T06:01:29.011Z,6.93
2023-04-22T06:04:06.892Z,6.95
2023-04-22T06:09:03.961Z,6.18
2023-04-22T06:11:32.394Z,5.97
2023-04-22T06:14:00.788Z,6.55
2023-04-22T06:16:30.265Z,6.03
2023-04-22T06:18:58.832Z,6.20
2023-04-22T06:21:27.606Z,6.28
2023-04-22T06:23:57.704Z,5.32
2023-04-22T06:26:25.951Z,6.43
2023-04-22T06:28:54.289Z,5.07
2023-04-22T06:31:23.031Z,5.20
2023-04-22T06:33:51.530Z,6.05
2023-04-22T06:36:20.596Z,6.00
2023-04-22T06:38:55.103Z,5.95
2023-04-22T06:41:44.639Z,5.80
2023-04-22T06:44:35.745Z,5.55
2023-04-22T06:47:18.260Z,4.90
2023-04-22T06:49:54.227Z,4.88
2023-04-22T06:52:27.476Z,4.93
2023-04-22T06:55:00.299Z,5.45
2023-04-22T06:57:28.631Z,4.25
2023-04-22T06:59:57.081Z,4.53
2023-04-22T07:02:28.002Z,5.22
2023-04-22T07:04:56.372Z,5.53
2023-04-22T07:07:25.761Z,5.13
2023-04-22T07:09:54.206Z,4.82
2023-04-22T07:12:22.217Z,5.45
2023-04-22T07:14:50.837Z,5.15
2023-04-22T07:17:22.357Z,4.85
2023-04-22T07:19:50.864Z,4.53
2023-04-22T07:22:19.003Z,5.30
2023-04-22T07:24:47.062Z,4.53
2023-04-22T07:27:15.234Z,4.70
2023-04-22T07:29:43.902Z,3.95
2023-04-22T07:32:12.399Z,4.90
2023-04-22T07:34:40.665Z,4.60
2023-04-22T07:37:09.749Z,4.65
2023-04-22T07:39:38.134Z,5.07
2023-04-22T07:42:07.620Z,5.05
2023-04-22T07:44:36.111Z,4.72
2023-04-22T07:47:08.744Z,5.00
2023-04-22T07:52:05.180Z,4.80
2023-04-22T07:54:33.547Z,4.47
2023-04-22T07:57:01.839Z,4.57
2023-04-22T07:59:30.226Z,4.60
2023-04-22T08:01:58.552Z,4.32
2023-04-22T08:04:27.121Z,5.13
2023-04-22T08:06:56.176Z,4.60
2023-04-22T08:09:24.257Z,4.30
2023-04-22T08:11:54.545Z,4.20
2023-04-22T08:14:22.758Z,4.57
2023-04-22T08:16:52.790Z,5.25
2023-04-22T08:19:21.268Z,5.63
2023-04-22T08:21:49.253Z,4.82
2023-04-22T08:24:17.374Z,4.40
2023-04-22T08:26:45.425Z,4.60
2023-04-22T08:29:13.654Z,4.70
2023-04-22T08:31:42.406Z,4.50
2023-04-22T08:34:11.310Z,4.60
2023-04-22T08:36:39.437Z,4.25
2023-04-22T08:39:07.555Z,4.68
2023-04-22T08:41:36.196Z,5.10
2023-04-22T08:44:04.569Z,4.30
2023-04-22T08:46:32.643Z,5.30
2023-04-22T08:49:04.105Z,4.28
2023-04-22T08:51:35.881Z,3.83
2023-04-22T08:54:03.905Z,3.55
2023-04-22T08:56:32.730Z,3.83
2023-04-22T08:59:01.055Z,3.83
2023-04-22T09:01:30.234Z,4.28
2023-04-22T09:04:01.129Z,4.07
2023-04-22T09:06:29.638Z,4.25
2023-04-22T09:08:59.240Z,5.15
2023-04-22T09:11:32.213Z,4.53
2023-04-22T09:14:00.222Z,5.53
2023-04-22T09:16:30.170Z,4.57
2023-04-22T09:18:58.854Z,4.95
2023-04-22T09:21:30.671Z,4.40
2023-04-22T09:23:59.794Z,4.22
2023-04-22T09:26:27.879Z,4.20
2023-04-22T09:29:01.271Z,4.80
2023-04-22T09:31:30.098Z,4.18
2023-04-22T09:33:59.951Z,4.32
2023-04-22T09:36:37.822Z,4.35
2023-04-22T09:39:08.917Z,4.85
2023-04-22T09:46:43.821Z,3.78
2023-04-22T09:49:12.358Z,3.95
2023-04-22T09:51:43.358Z,4.07
2023-04-22T09:56:48.886Z,4.00
2023-04-22T09:59:28.830Z,3.30
2023-04-22T10:02:01.807Z,3.83
2023-04-22T10:04:30.497Z,3.55
2023-04-22T10:06:58.816Z,3.42
2023-04-22T10:09:27.094Z,4.18
2023-04-22T10:11:58.652Z,3.45
2023-04-22T10:14:27.661Z,3.33
2023-04-22T10:17:00.090Z,3.30
2023-04-22T10:19:28.779Z,3.03
2023-04-22T10:22:01.919Z,3.72
2023-04-22T10:24:34.790Z,3.38
2023-04-22T10:27:08.706Z,3.63
2023-04-22T10:29:43.090Z,4.03
2023-04-22T10:32:18.254Z,3.17
2023-04-22T10:34:50.102Z,3.50
2023-04-22T10:37:22.234Z,3.78
2023-04-22T10:40:12.692Z,3.50
2023-04-22T10:42:42.378Z,3.22
2023-04-22T10:45:15.099Z,3.63
2023-04-22T10:47:43.832Z,3.97
2023-04-22T10:50:29.004Z,3.40
2023-04-22T10:53:18.449Z,3.80
2023-04-22T10:55:53.723Z,2.75
2023-04-22T10:58:23.644Z,2.92
2023-04-22T11:01:00.326Z,2.63
2023-04-22T11:03:30.482Z,3.30
2023-04-22T11:06:19.818Z,1.88
2023-04-22T11:08:52.876Z,2.33
2023-04-22T11:11:21.362Z,1.58
2023-04-22T11:13:53.134Z,1.60
2023-04-22T11:16:23.501Z,1.58
2023-04-22T11:18:51.974Z,1.50
2023-04-22T11:21:21.440Z,1.50
2023-04-22T11:23:54.304Z,1.52
2023-04-22T11:26:35.582Z,1.35
2023-04-22T11:29:04.094Z,1.65
2023-04-22T11:31:32.717Z,1.50
2023-04-22T11:34:01.169Z,1.70
2023-04-22T11:36:29.575Z,2.15
2023-04-22T11:38:58.590Z,1.50
2023-04-22T11:41:28.208Z,1.60
2023-04-22T11:43:57.237Z,1.52
2023-04-22T11:46:38.743Z,1.40
2023-04-22T11:49:17.424Z,1.45
2023-04-22T11:51:59.262Z,1.25
2023-04-22T11:54:35.344Z,1.40
2023-04-22T11:57:05.320Z,1.30
2023-04-22T11:59:33.344Z,1.48
2023-04-22T12:02:05.550Z,1.65
2023-04-22T12:04:40.794Z,1.50
2023-04-22T12:07:09.366Z,1.27
2023-04-22T12:09:37.920Z,1.52
2023-04-22T12:12:08.916Z,1.33
2023-04-22T12:14:37.804Z,1.40
2023-04-22T12:17:07.141Z,1.10
2023-04-22T12:19:35.189Z,1.40
2023-04-22T12:22:06.337Z,1.02
2023-04-22T12:24:34.596Z,1.10
2023-04-22T12:27:03.709Z,0.93
2023-04-22T12:29:33.743Z,1.20
2023-04-22T12:32:02.115Z,1.25
2023-04-22T12:34:30.189Z,1.10
2023-04-22T12:37:00.059Z,1.10
2023-04-22T12:39:28.360Z,1.10
2023-04-22T12:41:58.822Z,0.90
2023-04-22T12:44:26.961Z,1.23
2023-04-22T12:46:55.810Z,1.30
2023-04-22T12:49:23.989Z,1.25
2023-04-22T12:51:52.448Z,1.60
2023-04-22T12:54:21.409Z,1.38
2023-04-22T12:56:50.070Z,1.20
2023-04-22T12:59:18.631Z,1.25
2023-04-22T13:01:47.060Z,1.40
2023-04-22T13:04:15.582Z,1.50
2023-04-22T13:06:44.975Z,1.33
2023-04-22T13:09:16.119Z,1.33
2023-04-22T13:11:44.653Z,1.23
2023-04-22T13:14:12.969Z,1.35
2023-04-22T13:16:41.075Z,1.23
2023-04-22T13:19:09.651Z,1.58
2023-04-22T13:21:37.959Z,1.50
2023-04-22T13:24:06.427Z,1.85
2023-04-22T13:26:34.685Z,1.20
2023-04-22T13:29:02.942Z,1.33
2023-04-22T13:31:31.532Z,1.60
2023-04-22T13:34:00.945Z,1.58
2023-04-22T13:36:29.548Z,1.80
2023-04-22T13:38:58.622Z,1.40
2023-04-22T13:41:27.009Z,1.45
2023-04-22T13:43:57.776Z,1.63
2023-04-22T13:46:26.804Z,1.73
2023-04-22T13:48:56.815Z,1.77
2023-04-22T13:51:25.172Z,1.48
2023-04-22T13:53:53.150Z,1.40
2023-04-22T13:56:21.316Z,1.40
2023-04-22T13:58:49.309Z,1.48
2023-04-22T14:01:17.937Z,1.98
2023-04-22T14:03:47.008Z,1.50
2023-04-22T14:06:16.335Z,2.00
2023-04-22T14:08:44.861Z,1.40
2023-04-22T14:11:13.265Z,1.70
2023-04-22T14:13:41.453Z,2.13
2023-04-22T14:16:12.105Z,2.08
2023-04-22T14:21:09.884Z,2.30
2023-04-22T14:23:39.182Z,2.40
2023-04-22T14:26:11.924Z,2.65
2023-04-22T14:28:41.586Z,2.55
2023-04-22T14:31:10.301Z,2.05
2023-04-22T14:33:38.486Z,2.35
2023-04-22T14:36:06.964Z,2.13
2023-04-22T14:38:35.091Z,2.38
2023-04-22T14:41:03.356Z,1.70
2023-04-22T14:43:33.344Z,2.42
2023-04-22T14:46:02.105Z,2.28
2023-04-22T14:48:32.593Z,2.47
2023-04-22T14:51:01.427Z,2.42
2023-04-22T14:53:30.369Z,1.98
2023-04-22T14:55:58.691Z,2.17
2023-04-22T14:58:27.360Z,1.70
2023-04-22T15:00:55.634Z,1.92
2023-04-22T15:03:23.962Z,2.05
2023-04-22T15:05:52.839Z,1.73
2023-04-22T15:08:21.017Z,2.28
2023-04-22T15:10:49.131Z,1.60
2023-04-22T15:13:17.270Z,2.20
2023-04-22T15:15:48.059Z,2.00
2023-04-22T15:18:16.208Z,1.85
2023-04-22T15:20:44.361Z,1.60
2023-04-22T15:23:12.350Z,1.77
2023-04-22T15:25:40.404Z,2.10
2023-04-22T15:28:08.309Z,2.08
2023-04-22T15:30:36.880Z,1.75
2023-04-22T15:33:05.820Z,1.77
2023-04-22T15:35:33.861Z,1.60
2023-04-22T15:38:03.579Z,1.77
2023-04-22T15:40:31.898Z,2.00
2023-04-22T15:43:00.415Z,1.52
2023-04-22T15:45:28.717Z,1.90
2023-04-22T15:47:56.787Z,1.50
2023-04-22T15:50:25.594Z,2.25
2023-04-22T15:52:54.827Z,1.77
2023-04-22T15:55:23.049Z,1.88
2023-04-22T15:57:51.147Z,1.60
2023-04-22T16:00:19.437Z,2.15
2023-04-22T16:02:55.387Z,2.15
2023-04-22T16:05:25.374Z,1.77
2023-04-22T16:07:54.167Z,1.70
2023-04-22T16:10:23.491Z,2.13
2023-04-22T16:12:52.454Z,2.00
2023-04-22T16:15:22.944Z,1.63
2023-04-22T16:17:51.386Z,1.70
2023-04-22T16:20:19.812Z,1.67
2023-04-22T16:22:48.457Z,1.90
2023-04-22T16:25:19.516Z,2.03
2023-04-22T16:27:47.475Z,2.03
2023-04-22T16:30:16.435Z,1.88
2023-04-22T16:32:44.855Z,1.90
2023-04-22T16:35:13.078Z,2.00
2023-04-22T16:37:41.696Z,2.42
2023-04-22T16:40:10.251Z,2.00
2023-04-22T16:42:38.603Z,1.95
2023-04-22T16:45:08.561Z,1.83
2023-04-22T16:47:36.647Z,2.10
2023-04-22T16:50:05.107Z,1.70
2023-04-22T16:52:33.355Z,1.77
2023-04-22T16:55:01.442Z,1.63
2023-04-22T16:57:29.968Z,1.70
2023-04-22T16:59:58.662Z,1.65
2023-04-22T17:02:27.166Z,1.92
2023-04-22T17:04:55.706Z,1.73
2023-04-22T17:07:23.771Z,2.00
2023-04-22T17:09:51.796Z,2.28
2023-04-22T17:12:20.134Z,1.67
2023-04-22T17:14:48.291Z,1.85
2023-04-22T17:17:16.988Z,1.40
2023-04-22T17:19:45.064Z,2.15
2023-04-22T17:22:13.367Z,1.88
2023-04-22T17:24:42.098Z,1.85
2023-04-22T17:27:10.612Z,1.58
2023-04-22T17:29:38.945Z,2.22
2023-04-22T17:32:07.643Z,2.30
2023-04-22T17:34:35.973Z,2.15
2023-04-22T17:37:04.156Z,1.83
2023-04-22T17:39:32.390Z,1.73
2023-04-22T17:42:01.289Z,1.85
2023-04-22T17:44:32.224Z,1.95
2023-04-22T17:47:00.333Z,1.92
2023-04-22T17:49:28.934Z,1.80
2023-04-22T17:51:57.078Z,2.38
2023-04-22T17:54:25.577Z,2.75
2023-04-22T17:56:53.611Z,1.90
2023-04-22T17:59:21.790Z,1.60
2023-04-22T18:01:50.034Z,1.60
2023-04-22T18:04:18.115Z,1.90
2023-04-22T18:06:46.318Z,1.70
2023-04-22T18:09:14.455Z,2.42
2023-04-22T18:11:42.708Z,1.95
2023-04-22T18:14:11.399Z,2.05
2023-04-22T18:16:39.579Z,1.98
2023-04-22T18:19:07.763Z,2.05
2023-04-22T18:21:39.661Z,2.17
2023-04-22T18:24:09.662Z,2.00
2023-04-22T18:26:37.930Z,2.05
2023-04-22T18:29:06.398Z,2.00
2023-04-22T18:31:35.098Z,2.05
2023-04-22T18:34:03.312Z,2.10
2023-04-22T18:36:32.360Z,2.53
2023-04-22T18:39:01.140Z,2.13
2023-04-22T18:41:29.464Z,1.98
2023-04-22T18:43:57.853Z,2.25
2023-04-22T18:46:26.313Z,2.40
2023-04-22T18:48:54.428Z,2.10
2023-04-22T18:51:22.464Z,2.28
2023-04-22T18:53:50.661Z,2.17
2023-04-22T18:56:19.225Z,2.35
2023-04-22T18:58:47.337Z,2.25
2023-04-22T19:01:15.830Z,2.10
2023-04-22T19:03:44.535Z,2.08
2023-04-22T19:06:13.392Z,2.55
2023-04-22T19:08:41.602Z,1.85
2023-04-22T19:11:09.919Z,1.80
2023-04-22T19:13:38.054Z,2.35
2023-04-22T19:16:06.490Z,2.28
2023-04-22T19:18:34.444Z,2.00
2023-04-22T19:21:03.616Z,2.08
2023-04-22T19:23:31.892Z,1.70
2023-04-22T19:26:00.327Z,1.95
2023-04-22T19:28:28.842Z,2.05
2023-04-22T19:30:57.365Z,1.88
2023-04-22T19:33:25.312Z,1.98
2023-04-22T19:35:53.266Z,2.05
2023-04-22T19:38:22.996Z,1.88
2023-04-22T19:40:51.530Z,2.00
2023-04-22T19:43:19.559Z,2.60
2023-04-22T19:45:47.753Z,2.00
2023-04-22T19:48:16.320Z,2.13
2023-04-22T19:50:45.120Z,2.00
2023-04-22T19:53:13.270Z,1.48
2023-04-22T19:55:41.675Z,1.75
2023-04-22T19:58:10.001Z,2.20
2023-04-22T20:00:39.528Z,1.98
2023-04-22T20:03:08.652Z,2.42
2023-04-22T20:05:38.180Z,1.95
2023-04-22T20:08:09.655Z,2.72
2023-04-22T20:10:37.946Z,2.20
2023-04-22T20:13:06.439Z,2.50
2023-04-22T20:15:34.850Z,2.17
2023-04-22T20:18:03.619Z,2.28
2023-04-22T20:20:32.755Z,2.10
2023-04-22T20:23:10.537Z,2.15
2023-04-22T20:25:42.328Z,2.38
2023-04-22T20:28:11.201Z,2.38
2023-04-22T20:30:39.989Z,2.03
2023-04-22T20:33:10.602Z,2.42
2023-04-22T20:35:40.713Z,2.37
2023-04-22T20:38:09.252Z,2.58
2023-04-22T20:40:38.778Z,2.50
2023-04-22T20:43:07.462Z,2.00
2023-04-22T20:45:35.798Z,2.28
2023-04-22T20:48:04.145Z,2.38
2023-04-22T20:50:33.967Z,2.75
2023-04-22T20:53:02.433Z,2.22
2023-04-22T20:55:30.477Z,2.47
2023-04-22T20:57:59.101Z,2.30
2023-04-22T21:00:27.423Z,2.08
2023-04-22T21:02:56.690Z,2.42
2023-04-22T21:05:29.118Z,2.17
2023-04-22T21:07:57.713Z,2.28
2023-04-22T21:10:25.863Z,1.88
2023-04-22T21:12:55.908Z,2.10
2023-04-22T21:15:25.451Z,1.55
2023-04-22T21:17:57.353Z,1.52
2023-04-22T21:20:27.524Z,1.48
2023-04-22T21:22:56.021Z,1.40
2023-04-22T21:25:25.988Z,1.27
2023-04-22T21:27:54.921Z,1.70
2023-04-22T21:30:23.831Z,1.20
2023-04-22T21:32:52.009Z,1.27
2023-04-22T21:35:23.705Z,1.60
2023-04-22T21:37:54.499Z,1.30
2023-04-22T21:40:23.235Z,1.17
2023-04-22T21:42:51.473Z,1.08
2023-04-22T21:45:21.840Z,1.25
2023-04-22T21:47:50.541Z,1.05
2023-04-22T21:50:20.797Z,1.10
2023-04-22T21:52:49.593Z,1.02
2023-04-22T21:55:19.030Z,1.13
2023-04-22T21:57:47.507Z,1.38
2023-04-22T22:00:18.831Z,1.10
2023-04-22T22:02:49.204Z,1.17
2023-04-22T22:05:17.678Z,0.73
2023-04-22T22:07:46.127Z,1.00
2023-04-22T22:10:19.592Z,1.10
2023-04-22T22:12:49.361Z,1.58
2023-04-22T22:15:21.211Z,1.33
2023-04-22T22:17:50.936Z,1.00
2023-04-22T22:20:22.115Z,1.00
2023-04-22T22:22:51.535Z,1.40
2023-04-22T22:25:19.892Z,1.40
2023-04-22T22:27:49.590Z,1.15
2023-04-22T22:30:21.135Z,1.02
2023-04-22T22:32:49.679Z,0.95
2023-04-22T22:35:18.352Z,1.25
2023-04-22T22:37:46.681Z,1.13
2023-04-22T22:40:15.130Z,1.35
2023-04-22T22:42:43.883Z,1.05
2023-04-22T22:45:13.907Z,1.20
2023-04-22T22:47:42.347Z,1.40
2023-04-22T22:50:12.329Z,1.30
2023-04-22T22:52:40.826Z,1.10
2023-04-22T22:55:10.131Z,1.50
2023-04-22T22:57:38.430Z,1.52
2023-04-22T23:00:07.742Z,1.30
2023-04-22T23:02:36.360Z,1.30
2023-04-22T23:05:04.495Z,1.23
2023-04-22T23:07:32.601Z,1.67
2023-04-22T23:10:00.627Z,1.40
2023-04-22T23:12:28.938Z,1.58
2023-04-22T23:14:57.995Z,1.02
2023-04-22T23:17:26.645Z,1.38
2023-04-22T23:19:56.480Z,1.25
2023-04-22T23:22:25.018Z,1.20
2023-04-22T23:24:53.454Z,1.20
2023-04-22T23:27:22.429Z,1.60
2023-04-22T23:29:51.101Z,1.70
2023-04-22T23:32:21.476Z,1.50
2023-04-22T23:34:51.060Z,1.45
2023-04-22T23:37:20.331Z,1.55
2023-04-22T23:39:51.911Z,1.55
2023-04-22T23:44:52.168Z,1.35
2023-04-22T23:47:20.638Z,1.63
2023-04-22T23:49:48.678Z,1.80
2023-04-22T23:52:20.048Z,1.63
2023-04-22T23:54:48.320Z,1.60
2023-04-22T23:57:17.377Z,1.70
2023-04-22T23:59:46.318Z,1.90
